Time;durP1;ratioP1;P1;durP2;ratioP2;P2;SDS_P1;SDS_P2;PMS_P1;PMS_P2;Temp;Humidity;BMP_temperature;BMP_pressure;BME280_temperature;BME280_humidity;BME280_pressure;Samples;Min_cycle;Max_cycle;Signal;HPM_P1;HPM_P2
2022/07/14 00:00:20;;;;;;;6.33;2.93;;;20.00;82.20;;;;;;5053809;28;20510;-51
2022/07/14 00:02:47;;;;;;;3.77;2.63;;;20.00;81.40;;;;;;5058279;28;21132;-50
2022/07/14 00:05:15;;;;;;;6.33;2.67;;;20.00;81.30;;;;;;5062207;28;21058;-50
2022/07/14 00:07:42;;;;;;;10.03;2.40;;;20.00;81.40;;;;;;5056981;28;20479;-50
2022/07/14 00:10:09;;;;;;;4.27;2.57;;;20.00;81.50;;;;;;5028313;28;20477;-50
2022/07/14 00:12:36;;;;;;;4.73;3.17;;;19.70;83.20;;;;;;5063698;28;20493;-50
2022/07/14 00:15:03;;;;;;;2.77;2.27;;;19.70;83.30;;;;;;5056473;28;20481;-49
2022/07/14 00:17:30;;;;;;;3.90;2.00;;;19.60;82.80;;;;;;5037820;28;20570;-50
2022/07/14 00:19:57;;;;;;;2.80;2.27;;;19.40;83.10;;;;;;5061064;28;20588;-50
2022/07/14 00:22:25;;;;;;;4.53;3.00;;;19.10;84.70;;;;;;5059772;28;20842;-50
2022/07/14 00:24:52;;;;;;;5.57;3.00;;;19.10;85.00;;;;;;5058362;28;20489;-49
2022/07/14 00:27:18;;;;;;;4.00;3.00;;;18.80;86.10;;;;;;5055150;28;20909;-50
2022/07/14 00:29:45;;;;;;;4.00;2.80;;;18.70;86.00;;;;;;5059664;28;20490;-50
2022/07/14 00:32:12;;;;;;;2.83;2.53;;;18.60;86.00;;;;;;5061465;28;20479;-49
2022/07/14 00:34:38;;;;;;;7.30;3.17;;;18.40;86.60;;;;;;5061465;28;20470;-49
2022/07/14 00:37:05;;;;;;;6.90;3.07;;;18.50;86.30;;;;;;5058936;28;20471;-50
2022/07/14 00:42:13;;;;;;;6.17;3.60;;;18.30;87.00;;;;;;5054111;28;20526;-50
2022/07/14 00:44:40;;;;;;;3.23;2.93;;;18.10;88.10;;;;;;5055719;28;20474;-49
2022/07/14 00:47:07;;;;;;;4.23;2.60;;;17.90;88.60;;;;;;5049904;28;21007;-50
2022/07/14 00:49:37;;;;;;;6.87;3.13;;;17.80;89.30;;;;;;5054247;28;20554;-49
2022/07/14 00:52:04;;;;;;;7.13;2.50;;;17.70;89.60;;;;;;5059068;28;20494;-49
2022/07/14 00:54:30;;;;;;;5.80;3.20;;;17.70;89.60;;;;;;5056350;28;20474;-50
2022/07/14 00:56:58;;;;;;;12.43;3.30;;;17.80;89.60;;;;;;5057669;28;21170;-50
2022/07/14 00:59:25;;;;;;;3.90;2.57;;;17.90;88.70;;;;;;5059684;28;20489;-50
2022/07/14 01:01:52;;;;;;;6.30;2.90;;;18.10;87.30;;;;;;5059447;28;20482;-51
2022/07/14 01:04:18;;;;;;;3.77;3.40;;;18.20;86.60;;;;;;5043949;28;20503;-51
2022/07/14 01:06:45;;;;;;;2.80;2.33;;;18.30;86.80;;;;;;5046304;28;20489;-50
2022/07/14 01:09:12;;;;;;;7.33;2.37;;;18.30;86.10;;;;;;5048292;28;20560;-50
2022/07/14 01:11:38;;;;;;;3.20;2.60;;;18.30;86.30;;;;;;5055482;28;20914;-50
2022/07/14 01:14:06;;;;;;;4.10;2.97;;;18.30;86.30;;;;;;5046488;28;20964;-49
2022/07/14 01:16:33;;;;;;;7.80;2.83;;;18.00;87.50;;;;;;5056025;28;20478;-49
2022/07/14 01:19:00;;;;;;;4.17;3.20;;;17.80;88.70;;;;;;5058518;28;20485;-49
2022/07/14 01:21:28;;;;;;;7.30;3.20;;;17.70;89.00;;;;;;5057029;28;20535;-49
2022/07/14 01:23:55;;;;;;;8.37;3.10;;;17.70;88.20;;;;;;5051998;28;20483;-49
2022/07/14 01:26:21;;;;;;;3.37;3.07;;;17.70;88.40;;;;;;5046842;28;20593;-49
2022/07/14 01:28:48;;;;;;;2.80;2.40;;;17.70;87.70;;;;;;5056683;28;20490;-50
2022/07/14 01:31:14;;;;;;;7.37;2.97;;;17.60;88.40;;;;;;5052004;28;20486;-49
2022/07/14 01:33:41;;;;;;;3.37;2.90;;;17.40;89.40;;;;;;5063496;28;20993;-49
2022/07/14 01:36:08;;;;;;;3.63;2.80;;;17.40;89.40;;;;;;5063784;28;20961;-50
2022/07/14 01:38:37;;;;;;;4.80;2.33;;;17.30;89.70;;;;;;5056402;28;20481;-49
2022/07/14 01:41:03;;;;;;;3.73;2.80;;;17.10;90.10;;;;;;5057558;28;20490;-49
2022/07/14 01:43:32;;;;;;;5.40;3.17;;;16.90;90.10;;;;;;5064087;28;20505;-49
2022/07/14 01:45:59;;;;;;;4.97;3.10;;;16.70;90.70;;;;;;5052562;28;20487;-49
2022/07/14 01:48:25;;;;;;;4.07;3.67;;;16.70;91.10;;;;;;5050405;28;20491;-49
2022/07/14 01:50:52;;;;;;;7.03;3.37;;;16.60;91.40;;;;;;5059158;28;20487;-50
2022/07/14 01:53:19;;;;;;;14.13;3.60;;;16.50;91.80;;;;;;5061660;28;20605;-49
2022/07/14 01:55:47;;;;;;;4.00;3.20;;;16.50;92.10;;;;;;5063215;28;20483;-49
2022/07/14 01:58:13;;;;;;;7.70;3.00;;;16.50;91.90;;;;;;5051435;28;20475;-50
2022/07/14 02:00:41;;;;;;;7.53;3.20;;;16.70;91.30;;;;;;5062129;28;20478;-49
2022/07/14 02:03:08;;;;;;;7.60;2.23;;;16.80;91.10;;;;;;5060084;28;20479;-49
2022/07/14 02:05:34;;;;;;;2.53;2.33;;;16.90;90.90;;;;;;5057817;28;20482;-49
2022/07/14 02:08:01;;;;;;;4.50;2.50;;;17.10;90.30;;;;;;5057902;28;20890;-49
2022/07/14 02:13:13;;;;;;;7.97;2.80;;;16.90;90.20;;;;;;5068922;28;20808;-50
2022/07/14 02:15:40;;;;;;;8.43;2.90;;;16.90;90.10;;;;;;5060177;28;20489;-53
2022/07/14 02:18:07;;;;;;;3.87;3.20;;;17.00;90.00;;;;;;5060999;28;20540;-50
2022/07/14 02:20:33;;;;;;;3.83;2.80;;;17.00;90.00;;;;;;5057627;28;20979;-50
2022/07/14 02:23:00;;;;;;;3.20;2.73;;;17.00;89.10;;;;;;5068300;28;20478;-50
2022/07/14 02:25:27;;;;;;;4.00;2.70;;;17.00;89.50;;;;;;5057205;28;20485;-50
2022/07/14 02:27:53;;;;;;;4.70;2.67;;;16.90;90.00;;;;;;5057215;28;20574;-49
2022/07/14 02:30:22;;;;;;;3.60;3.03;;;16.90;90.20;;;;;;5058251;28;20488;-49
2022/07/14 02:32:48;;;;;;;6.10;3.60;;;16.90;90.10;;;;;;5054179;28;20561;-49
2022/07/14 02:35:16;;;;;;;9.30;3.17;;;16.90;89.40;;;;;;5061769;28;20486;-49
2022/07/14 02:37:42;;;;;;;3.87;3.00;;;16.90;89.40;;;;;;5055830;28;20490;-49
2022/07/14 02:40:10;;;;;;;3.23;2.63;;;16.80;90.10;;;;;;5059098;28;20483;-49
2022/07/14 02:42:37;;;;;;;6.77;3.70;;;16.80;89.70;;;;;;5058149;28;20548;-49
2022/07/14 02:45:04;;;;;;;5.50;3.50;;;16.80;89.10;;;;;;5061568;28;20479;-49
2022/07/14 02:47:33;;;;;;;5.43;2.70;;;16.80;89.50;;;;;;5054879;28;20471;-49
2022/07/14 02:50:00;;;;;;;3.40;3.10;;;16.70;89.30;;;;;;5048456;28;21045;-50
2022/07/14 02:52:26;;;;;;;4.73;2.73;;;16.80;89.30;;;;;;5058042;28;20949;-49
2022/07/14 02:54:53;;;;;;;6.70;3.53;;;16.80;89.20;;;;;;5058866;28;20483;-48
2022/07/14 02:57:20;;;;;;;4.63;2.83;;;16.80;89.30;;;;;;5059847;28;20470;-48
2022/07/14 02:59:46;;;;;;;6.23;3.53;;;16.80;89.40;;;;;;5068425;28;20479;-48
2022/07/14 03:02:13;;;;;;;10.03;3.10;;;16.70;89.20;;;;;;5052480;28;20510;-48
2022/07/14 03:04:41;;;;;;;16.40;3.73;;;16.80;89.60;;;;;;5057965;28;20482;-49
2022/07/14 03:07:08;;;;;;;5.27;2.50;;;16.70;89.30;;;;;;5032886;28;20529;-49
2022/07/14 03:09:35;;;;;;;3.70;3.13;;;16.70;88.70;;;;;;5042605;28;20569;-49
2022/07/14 03:12:02;;;;;;;6.43;3.00;;;16.70;88.60;;;;;;5039149;28;20515;-49
2022/07/14 03:14:28;;;;;;;5.33;3.00;;;16.50;89.50;;;;;;5047627;28;20488;-49
2022/07/14 03:16:55;;;;;;;4.07;2.60;;;16.50;90.00;;;;;;5042829;28;20826;-49
2022/07/14 03:19:22;;;;;;;3.67;3.30;;;16.40;89.20;;;;;;5060198;28;20478;-49
2022/07/14 03:21:50;;;;;;;3.60;3.10;;;16.30;88.80;;;;;;5055780;28;20449;-49
2022/07/14 03:24:17;;;;;;;4.70;2.97;;;16.30;88.90;;;;;;5041760;28;20479;-49
2022/07/14 03:26:44;;;;;;;3.27;2.90;;;16.30;88.80;;;;;;5052867;28;20579;-49
2022/07/14 03:29:11;;;;;;;3.20;2.90;;;16.30;89.30;;;;;;5058191;28;20576;-53
2022/07/14 03:31:38;;;;;;;8.40;4.13;;;16.30;89.20;;;;;;5057330;28;20574;-49
2022/07/14 03:34:04;;;;;;;5.97;3.27;;;16.30;89.00;;;;;;5066859;28;20470;-49
2022/07/14 03:36:31;;;;;;;5.00;3.90;;;16.30;89.20;;;;;;5059939;28;20501;-49
2022/07/14 03:38:59;;;;;;;6.73;2.80;;;16.20;88.90;;;;;;5062303;28;20486;-48
2022/07/14 03:41:26;;;;;;;6.67;3.17;;;16.20;89.20;;;;;;5061281;28;20477;-49
2022/07/14 03:43:53;;;;;;;5.70;3.30;;;16.00;90.10;;;;;;5053469;28;20980;-48
2022/07/14 03:46:19;;;;;;;3.87;3.07;;;16.00;90.10;;;;;;5059310;28;20522;-49
2022/07/14 03:48:46;;;;;;;7.87;4.27;;;16.00;90.20;;;;;;5059135;28;20479;-48
2022/07/14 03:51:13;;;;;;;5.80;3.17;;;16.00;90.10;;;;;;5056059;28;20471;-49
2022/07/14 03:53:39;;;;;;;6.10;3.57;;;16.10;89.90;;;;;;5059281;28;20485;-49
2022/07/14 03:56:08;;;;;;;4.90;3.40;;;16.10;89.90;;;;;;5064189;28;20488;-49
2022/07/14 03:58:34;;;;;;;3.87;3.10;;;16.10;89.20;;;;;;5054108;28;20506;-49
2022/07/14 04:01:01;;;;;;;5.63;3.67;;;16.10;89.10;;;;;;5056680;28;20799;-49
2022/07/14 04:03:28;;;;;;;5.60;3.20;;;16.10;89.60;;;;;;5043794;28;21034;-49
2022/07/14 04:05:54;;;;;;;4.30;3.27;;;16.10;89.30;;;;;;5057910;28;20731;-49
2022/07/14 04:08:21;;;;;;;5.47;4.17;;;16.20;89.00;;;;;;5055405;28;20562;-49
2022/07/14 04:10:48;;;;;;;6.30;4.80;;;16.10;90.00;;;;;;5044700;28;20898;-49
2022/07/14 04:13:17;;;;;;;5.23;3.80;;;16.20;90.10;;;;;;5065159;28;20470;-49
2022/07/14 04:15:43;;;;;;;7.30;3.23;;;16.20;90.00;;;;;;5061836;28;20472;-49
2022/07/14 04:18:10;;;;;;;7.73;3.23;;;16.10;89.70;;;;;;5056297;28;20484;-48
2022/07/14 04:20:37;;;;;;;6.40;4.70;;;16.00;90.20;;;;;;5058222;28;20478;-49
2022/07/14 04:23:04;;;;;;;3.40;2.87;;;15.90;90.60;;;;;;5057044;28;20582;-50
2022/07/14 04:25:31;;;;;;;3.90;3.10;;;15.80;90.60;;;;;;5057584;28;21624;-49
2022/07/14 04:27:58;;;;;;;3.53;3.00;;;15.80;90.70;;;;;;5053355;28;20478;-48
2022/07/14 04:30:27;;;;;;;4.07;3.53;;;15.80;90.90;;;;;;5053453;28;20570;-48
2022/07/14 04:32:54;;;;;;;9.53;3.50;;;15.90;91.10;;;;;;5051201;28;20483;-49
2022/07/14 04:35:21;;;;;;;4.37;3.73;;;15.90;91.20;;;;;;5054262;28;20491;-50
2022/07/14 04:37:48;;;;;;;5.70;4.40;;;15.90;91.70;;;;;;5063670;28;20475;-49
2022/07/14 04:40:14;;;;;;;7.40;3.53;;;15.90;92.00;;;;;;5055947;28;20731;-48
2022/07/14 04:42:41;;;;;;;4.90;4.00;;;15.90;92.30;;;;;;5056146;28;20487;-49
2022/07/14 04:45:09;;;;;;;3.70;3.40;;;15.80;92.60;;;;;;5051178;28;20495;-48
2022/07/14 04:47:37;;;;;;;9.33;4.83;;;15.80;93.00;;;;;;5031536;28;20470;-49
2022/07/14 04:52:50;;;;;;;6.90;5.00;;;15.80;93.40;;;;;;5049243;28;20478;-49
2022/07/14 04:55:18;;;;;;;4.10;3.67;;;15.80;93.60;;;;;;5063790;28;20744;-49
2022/07/14 04:57:45;;;;;;;8.53;5.27;;;16.00;93.50;;;;;;5062134;28;20478;-49
2022/07/14 05:00:12;;;;;;;4.50;3.77;;;16.20;92.90;;;;;;5067090;28;20821;-49
2022/07/14 05:02:40;;;;;;;6.07;4.70;;;16.40;93.00;;;;;;5067953;28;20782;-49
2022/07/14 05:05:08;;;;;;;4.50;4.10;;;16.60;92.50;;;;;;5026159;28;20471;-49
2022/07/14 05:07:34;;;;;;;8.63;5.43;;;16.90;92.40;;;;;;5055173;28;20842;-49
2022/07/14 05:10:02;;;;;;;4.70;3.93;;;16.90;92.50;;;;;;5063456;28;20984;-49
2022/07/14 05:12:29;;;;;;;5.80;4.30;;;16.90;92.60;;;;;;5055804;28;20487;-49
2022/07/14 05:14:56;;;;;;;6.50;4.73;;;17.00;93.10;;;;;;5052394;28;20485;-50
2022/07/14 05:17:22;;;;;;;7.00;4.30;;;17.00;93.70;;;;;;5057117;28;20488;-49
2022/07/14 05:19:51;;;;;;;5.40;3.93;;;17.00;92.90;;;;;;5064557;28;20834;-49
2022/07/14 05:22:18;;;;;;;7.17;4.07;;;17.10;93.20;;;;;;5059078;28;20571;-49
2022/07/14 05:24:45;;;;;;;6.73;5.20;;;17.10;93.80;;;;;;5055762;28;20480;-49
2022/07/14 05:27:12;;;;;;;4.40;4.00;;;17.20;93.70;;;;;;5049377;28;20654;-50
2022/07/14 05:29:39;;;;;;;6.53;4.30;;;17.20;94.10;;;;;;5067589;28;20490;-49
2022/07/14 05:32:06;;;;;;;9.60;4.20;;;17.20;94.30;;;;;;5068536;28;20481;-49
2022/07/14 05:34:33;;;;;;;7.10;4.80;;;17.30;94.70;;;;;;5056031;28;20482;-49
2022/07/14 05:37:01;;;;;;;8.13;4.07;;;17.50;94.30;;;;;;5058041;28;20509;-49
2022/07/14 05:39:28;;;;;;;4.73;4.30;;;17.60;94.10;;;;;;5060764;28;20510;-50
2022/07/14 05:41:55;;;;;;;5.90;4.50;;;17.70;93.80;;;;;;5050804;28;20486;-49
2022/07/14 05:44:21;;;;;;;6.13;4.20;;;17.80;93.70;;;;;;5055562;28;20480;-49
2022/07/14 05:46:48;;;;;;;6.03;5.33;;;18.00;93.80;;;;;;5048330;28;20493;-49
2022/07/14 05:49:15;;;;;;;4.80;4.40;;;18.20;93.90;;;;;;5062645;28;21101;-50
2022/07/14 05:51:42;;;;;;;4.90;3.97;;;18.20;94.10;;;;;;5064082;28;20474;-50
2022/07/14 05:54:10;;;;;;;5.30;3.80;;;18.60;93.50;;;;;;5053610;28;20492;-49
2022/07/14 05:56:37;;;;;;;5.40;4.90;;;18.80;93.50;;;;;;5066844;28;21051;-50
2022/07/14 05:59:03;;;;;;;4.43;3.20;;;19.20;92.20;;;;;;5056689;28;20479;-49
2022/07/14 06:01:30;;;;;;;5.40;4.13;;;19.50;92.30;;;;;;5061713;28;20486;-50
2022/07/14 06:03:58;;;;;;;5.30;3.83;;;19.50;91.90;;;;;;5053340;28;20479;-49
2022/07/14 06:06:24;;;;;;;7.10;3.60;;;20.00;90.00;;;;;;5054550;28;20482;-50
2022/07/14 06:08:51;;;;;;;14.00;4.20;;;20.20;90.60;;;;;;5052717;28;20485;-50
2022/07/14 06:11:19;;;;;;;7.47;3.20;;;20.40;91.20;;;;;;5059368;28;20474;-51
2022/07/14 06:13:46;;;;;;;7.03;3.40;;;20.90;90.90;;;;;;5057417;28;20475;-50
2022/07/14 06:16:13;;;;;;;4.00;3.57;;;20.90;91.40;;;;;;5057434;28;21057;-50
2022/07/14 06:18:40;;;;;;;6.23;3.93;;;21.30;90.30;;;;;;5057228;28;20479;-50
2022/07/14 06:21:09;;;;;;;7.30;3.40;;;21.80;89.60;;;;;;5059513;28;20949;-50
2022/07/14 06:23:35;;;;;;;4.87;4.47;;;22.00;90.60;;;;;;5059741;28;20492;-50
2022/07/14 06:26:08;;;;;;;3.77;3.43;;;22.20;88.90;;;;;;5060848;28;20557;-50
2022/07/14 06:28:36;;;;;;;6.53;4.33;;;22.40;86.70;;;;;;5061173;28;21004;-50
2022/07/14 06:31:03;;;;;;;3.73;3.40;;;22.50;86.60;;;;;;5051925;28;20561;-50
2022/07/14 06:33:29;;;;;;;6.33;3.73;;;23.00;83.20;;;;;;5058141;28;21095;-50
2022/07/14 06:35:56;;;;;;;3.70;3.40;;;23.30;82.60;;;;;;5064814;28;21024;-51
2022/07/14 06:38:23;;;;;;;3.10;2.83;;;23.50;79.10;;;;;;5063324;28;20470;-50
2022/07/14 06:40:49;;;;;;;11.93;3.57;;;23.80;77.40;;;;;;5062854;28;20478;-54
2022/07/14 06:43:16;;;;;;;4.43;3.17;;;23.80;78.10;;;;;;5067886;28;20582;-50
2022/07/14 06:45:44;;;;;;;3.93;3.57;;;24.00;76.60;;;;;;5066250;28;20485;-49
2022/07/14 06:48:11;;;;;;;3.80;3.50;;;24.10;75.50;;;;;;5064666;28;20497;-49
2022/07/14 06:50:38;;;;;;;5.00;3.10;;;24.30;75.00;;;;;;5057490;28;20479;-49
2022/07/14 06:53:05;;;;;;;5.00;2.90;;;24.30;74.90;;;;;;5058805;28;20483;-50
2022/07/14 06:55:32;;;;;;;4.00;2.80;;;24.40;74.80;;;;;;5055994;28;20478;-50
2022/07/14 06:57:59;;;;;;;3.30;3.00;;;24.60;75.10;;;;;;5057162;28;20478;-50
2022/07/14 07:00:25;;;;;;;3.60;2.83;;;24.70;75.10;;;;;;5068413;28;20473;-50
2022/07/14 07:02:53;;;;;;;3.53;2.87;;;24.70;73.90;;;;;;5056654;28;21193;-51
2022/07/14 07:08:15;;;;;;;5.70;2.63;;;25.40;73.00;;;;;;4984594;28;20519;-50
2022/07/14 07:10:42;;;;;;;5.03;4.17;;;25.40;72.60;;;;;;5028652;28;20478;-48
2022/07/14 07:13:09;;;;;;;4.23;2.93;;;25.60;71.80;;;;;;5062009;28;20490;-50
2022/07/14 07:15:38;;;;;;;7.93;4.60;;;25.80;70.00;;;;;;5055757;28;20503;-50
2022/07/14 07:18:07;;;;;;;6.00;3.30;;;25.90;71.30;;;;;;5044156;28;20476;-50
2022/07/14 07:20:34;;;;;;;7.30;3.77;;;26.10;70.80;;;;;;5047891;28;20885;-49
2022/07/14 07:23:01;;;;;;;5.10;4.07;;;26.20;70.10;;;;;;5047103;28;20590;-51
2022/07/14 07:25:27;;;;;;;6.67;3.80;;;26.30;71.00;;;;;;5034602;28;20487;-51
2022/07/14 07:27:54;;;;;;;6.60;3.10;;;26.50;67.80;;;;;;5047805;28;20561;-49
2022/07/14 07:30:21;;;;;;;5.50;2.80;;;26.70;67.40;;;;;;5056399;28;20971;-50
2022/07/14 07:32:48;;;;;;;4.90;3.03;;;26.70;67.70;;;;;;5060935;28;20510;-50
2022/07/14 07:35:16;;;;;;;2.83;2.53;;;26.90;67.40;;;;;;5061630;28;20887;-51
2022/07/14 07:37:43;;;;;;;6.10;2.90;;;27.10;66.10;;;;;;5058466;28;20485;-50
2022/07/14 07:40:10;;;;;;;5.67;3.30;;;27.10;66.00;;;;;;5062985;28;20481;-51
2022/07/14 07:42:37;;;;;;;3.70;3.30;;;27.30;66.50;;;;;;5056063;28;20495;-50
2022/07/14 07:45:05;;;;;;;6.30;2.80;;;27.40;65.10;;;;;;5060658;28;21002;-51
2022/07/14 07:47:31;;;;;;;3.53;2.70;;;27.40;66.30;;;;;;5059874;28;20482;-50
2022/07/14 07:49:58;;;;;;;5.97;2.80;;;27.60;65.20;;;;;;5064218;28;20485;-51
2022/07/14 07:52:26;;;;;;;12.43;2.63;;;27.70;63.30;;;;;;5063452;28;20482;-51
2022/07/14 07:54:53;;;;;;;6.20;2.50;;;27.70;64.30;;;;;;5055975;28;20477;-50
2022/07/14 07:57:20;;;;;;;4.23;2.53;;;27.80;64.20;;;;;;5053019;28;20652;-52
2022/07/14 07:59:49;;;;;;;9.30;3.27;;;27.80;62.80;;;;;;5064778;28;20470;-51
2022/07/14 08:02:15;;;;;;;5.63;2.53;;;27.90;63.80;;;;;;5055738;28;20479;-51
2022/07/14 08:04:42;;;;;;;4.93;3.10;;;28.10;62.00;;;;;;5061318;28;20917;-52
2022/07/14 08:07:09;;;;;;;6.93;2.23;;;28.50;64.30;;;;;;5057479;28;20498;-50
2022/07/14 08:09:37;;;;;;;3.83;2.80;;;28.80;63.10;;;;;;5042851;28;20474;-50
2022/07/14 08:12:04;;;;;;;2.80;2.37;;;29.10;65.10;;;;;;5058136;28;20482;-51
2022/07/14 08:14:49;;;;;;;5.30;2.57;;;29.40;60.60;;;;;;5059882;28;20490;-51
2022/07/14 08:17:16;;;;;;;2.40;1.97;;;29.60;61.20;;;;;;5060840;28;21450;-51
2022/07/14 08:19:43;;;;;;;4.87;2.53;;;29.70;59.40;;;;;;5062023;28;20477;-51
2022/07/14 08:22:09;;;;;;;5.77;2.20;;;29.70;60.10;;;;;;5061319;28;20960;-50
2022/07/14 08:24:37;;;;;;;3.03;2.67;;;29.80;59.30;;;;;;5055991;28;20471;-53
2022/07/14 08:27:04;;;;;;;6.90;2.20;;;29.80;58.90;;;;;;5054172;28;20489;-53
2022/07/14 08:29:31;;;;;;;3.30;2.90;;;29.80;59.10;;;;;;5064630;28;20480;-51
2022/07/14 08:31:58;;;;;;;3.23;2.33;;;29.90;58.40;;;;;;5066912;28;20832;-52
2022/07/14 08:34:25;;;;;;;3.40;2.07;;;30.10;58.30;;;;;;5063440;28;21157;-51
2022/07/14 08:36:51;;;;;;;4.33;2.33;;;30.10;58.70;;;;;;5060937;28;20511;-51
2022/07/14 08:39:19;;;;;;;2.70;2.50;;;30.20;59.80;;;;;;5065390;28;20762;-51
2022/07/14 08:41:48;;;;;;;9.00;2.57;;;30.40;58.80;;;;;;5065428;28;20489;-51
2022/07/14 08:44:15;;;;;;;3.60;2.53;;;30.50;58.70;;;;;;5067725;28;20492;-51
2022/07/14 08:46:42;;;;;;;3.60;2.80;;;30.60;59.00;;;;;;5061557;28;20485;-51
2022/07/14 08:49:09;;;;;;;2.77;2.50;;;30.80;60.00;;;;;;5067492;28;20493;-53
2022/07/14 08:51:39;;;;;;;7.93;3.47;;;31.20;59.50;;;;;;5064846;28;20561;-53
2022/07/14 08:54:08;;;;;;;4.97;2.50;;;31.30;59.20;;;;;;5055368;28;20977;-52
2022/07/14 08:56:34;;;;;;;4.63;2.60;;;31.60;58.30;;;;;;5056114;28;20460;-53
2022/07/14 08:59:03;;;;;;;5.77;2.97;;;31.70;58.00;;;;;;5064089;28;20473;-50
2022/07/14 09:01:30;;;;;;;15.33;4.60;;;31.60;58.20;;;;;;5061772;28;20495;-52
2022/07/14 09:03:57;;;;;;;9.20;4.43;;;31.60;57.80;;;;;;5066535;28;20485;-51
2022/07/14 09:06:48;;;;;;;3.93;2.87;;;31.50;58.90;;;;;;5063376;28;21349;-52
2022/07/14 09:09:18;;;;;;;4.63;2.43;;;31.40;58.20;;;;;;5065930;28;20480;-52
2022/07/14 09:11:57;;;;;;;3.90;2.40;;;31.40;59.40;;;;;;5063594;28;20533;-51
2022/07/14 09:14:25;;;;;;;8.20;3.00;;;31.30;60.40;;;;;;5064821;28;20509;-51
2022/07/14 09:16:53;;;;;;;3.07;2.43;;;31.20;58.20;;;;;;5063275;28;20469;-52
2022/07/14 09:19:20;;;;;;;3.67;2.57;;;31.10;58.80;;;;;;5065001;28;20876;-52
2022/07/14 09:21:55;;;;;;;10.03;3.40;;;31.10;59.80;;;;;;5065916;28;20592;-52
2022/07/14 09:24:23;;;;;;;3.13;2.50;;;31.10;59.20;;;;;;5063126;28;20444;-51
2022/07/14 09:26:51;;;;;;;5.83;2.57;;;30.80;59.30;;;;;;5064097;28;20642;-52
2022/07/14 09:29:19;;;;;;;6.57;2.60;;;30.60;58.40;;;;;;5063416;28;20872;-52
2022/07/14 09:31:48;;;;;;;4.50;3.10;;;30.60;59.40;;;;;;5057135;28;20463;-56
2022/07/14 09:34:27;;;;;;;4.63;3.00;;;30.50;59.50;;;;;;5062760;28;20528;-53
2022/07/14 09:37:08;;;;;;;3.70;3.13;;;30.60;59.40;;;;;;5061042;28;20494;-51
2022/07/14 09:39:36;;;;;;;5.23;2.23;;;30.80;60.80;;;;;;5063144;28;21014;-51
2022/07/14 09:42:03;;;;;;;4.90;2.37;;;30.90;59.60;;;;;;5064341;28;20459;-51
2022/07/14 09:44:30;;;;;;;4.17;3.03;;;31.10;59.80;;;;;;5056223;28;20491;-52
2022/07/14 09:46:58;;;;;;;3.60;2.77;;;31.30;58.70;;;;;;5025817;28;20631;-52
2022/07/14 09:49:27;;;;;;;3.07;2.30;;;31.20;58.80;;;;;;5066677;28;20448;-56
2022/07/14 09:51:56;;;;;;;4.27;2.87;;;31.40;59.50;;;;;;5065076;28;20950;-52
2022/07/14 09:54:42;;;;;;;13.13;3.40;;;31.50;58.20;;;;;;5062401;28;20474;-52
2022/07/14 09:57:18;;;;;;;3.90;2.80;;;31.60;58.70;;;;;;5051179;28;20455;-52
2022/07/14 09:59:46;;;;;;;8.40;2.37;;;31.80;59.20;;;;;;5058905;28;20793;-52
2022/07/14 10:02:17;;;;;;;8.17;3.57;;;32.00;58.80;;;;;;5056717;28;20450;-52
2022/07/14 10:04:45;;;;;;;3.20;2.60;;;32.20;58.20;;;;;;5064890;28;20866;-52
2022/07/14 10:07:12;;;;;;;3.53;2.70;;;32.40;57.60;;;;;;5062567;28;21072;-52
2022/07/14 10:09:43;;;;;;;6.57;2.63;;;32.50;57.70;;;;;;5062146;28;20659;-51
2022/07/14 10:12:10;;;;;;;3.23;2.63;;;32.70;58.10;;;;;;5063363;28;20461;-53
2022/07/14 10:14:37;;;;;;;3.80;3.00;;;33.00;58.00;;;;;;5063240;28;20937;-52
2022/07/14 10:17:05;;;;;;;4.63;2.23;;;;;;;;;;5057683;28;20452;-53
2022/07/14 10:19:33;;;;;;;9.17;2.30;;;33.10;56.80;;;;;;5064708;28;20542;-52
2022/07/14 10:22:01;;;;;;;3.57;3.00;;;32.80;55.60;;;;;;5061054;28;20445;-52
2022/07/14 10:24:29;;;;;;;4.17;3.13;;;33.00;55.40;;;;;;5065485;28;20468;-54
2022/07/14 10:26:57;;;;;;;5.50;3.10;;;33.30;57.80;;;;;;5059328;28;20474;-53
2022/07/14 10:29:24;;;;;;;2.90;2.70;;;33.50;57.10;;;;;;5063554;28;20889;-52
2022/07/14 10:32:06;;;;;;;3.97;2.37;;;33.80;56.50;;;;;;5065012;28;20486;-54
2022/07/14 10:34:42;;;;;;;4.80;2.60;;;34.10;55.70;;;;;;5062278;28;20486;-54
2022/07/14 10:37:16;;;;;;;6.67;2.73;;;34.10;55.00;;;;;;5062393;28;20759;-54
2022/07/14 10:39:49;;;;;;;4.87;2.63;;;34.00;54.10;;;;;;5058983;28;20460;-52
2022/07/14 10:42:28;;;;;;;3.80;2.63;;;33.80;53.70;;;;;;5052624;28;20485;-52
2022/07/14 10:44:55;;;;;;;3.70;2.80;;;33.80;55.10;;;;;;5037117;28;20471;-53
2022/07/14 10:47:24;;;;;;;5.90;2.67;;;33.90;54.40;;;;;;5047182;28;20920;-52
2022/07/14 10:50:07;;;;;;;4.27;2.77;;;33.90;54.10;;;;;;5063373;28;20535;-52
2022/07/14 10:52:36;;;;;;;6.20;2.43;;;33.90;54.30;;;;;;5058703;28;20485;-54
2022/07/14 10:55:17;;;;;;;6.47;2.93;;;33.80;53.50;;;;;;5034675;28;20807;-52
2022/07/14 10:58:21;;;;;;;3.10;2.50;;;33.90;54.70;;;;;;5053208;28;20840;-54
2022/07/14 11:00:56;;;;;;;5.03;2.37;;;33.70;54.80;;;;;;5057929;28;20510;-52
2022/07/14 11:03:25;;;;;;;6.60;2.80;;;33.70;54.20;;;;;;5062044;28;20671;-53
2022/07/14 11:06:16;;;;;;;10.50;2.83;;;33.80;55.00;;;;;;5063092;28;20600;-52
2022/07/14 11:08:45;;;;;;;4.90;2.37;;;33.80;55.80;;;;;;5059459;28;20446;-53
2022/07/14 11:11:19;;;;;;;5.77;2.60;;;34.20;55.20;;;;;;5063306;28;20454;-52
2022/07/14 11:14:07;;;;;;;5.10;2.20;;;34.30;54.70;;;;;;5060374;28;20475;-52
2022/07/14 11:17:00;;;;;;;4.80;2.23;;;34.40;54.00;;;;;;5045382;28;20967;-53
2022/07/14 11:19:32;;;;;;;2.73;2.20;;;34.60;51.80;;;;;;5056546;28;20568;-54
2022/07/14 11:22:16;;;;;;;5.50;2.60;;;34.60;53.30;;;;;;5059325;28;20448;-52
2022/07/14 11:24:48;;;;;;;3.13;2.07;;;34.50;51.90;;;;;;5055398;28;20454;-53
2022/07/14 11:27:28;;;;;;;3.33;2.87;;;34.30;52.30;;;;;;5052469;28;20946;-53
2022/07/14 11:29:57;;;;;;;2.43;2.00;;;34.40;53.00;;;;;;5052738;28;20471;-50
2022/07/14 11:32:32;;;;;;;7.90;2.60;;;34.50;52.10;;;;;;5050705;28;20730;-52
2022/07/14 11:38:02;;;;;;;3.23;2.40;;;35.00;52.80;;;;;;5039273;28;20531;-54
2022/07/14 11:40:48;;;;;;;4.13;2.47;;;35.10;53.30;;;;;;5055882;28;20486;-53
2022/07/14 11:43:44;;;;;;;3.47;2.50;;;35.10;53.20;;;;;;5051767;28;20482;-53
2022/07/14 11:46:12;;;;;;;3.07;2.30;;;35.10;52.10;;;;;;5049798;28;20810;-52
2022/07/14 11:48:41;;;;;;;5.40;2.50;;;35.10;52.20;;;;;;5036891;28;20915;-54
2022/07/14 11:51:10;;;;;;;5.90;2.70;;;35.00;52.30;;;;;;5048824;28;20889;-56
2022/07/14 11:53:39;;;;;;;3.07;2.50;;;35.10;51.90;;;;;;5051003;28;20453;-55
2022/07/14 11:56:07;;;;;;;7.83;3.17;;;35.20;53.60;;;;;;5002348;28;20514;-58
2022/07/14 11:58:35;;;;;;;5.30;2.37;;;35.40;54.10;;;;;;5038158;28;20525;-57
2022/07/14 12:01:03;;;;;;;6.53;2.60;;;35.00;50.90;;;;;;5057994;28;20518;-55
2022/07/14 12:03:32;;;;;;;3.70;2.40;;;34.80;52.00;;;;;;5054560;28;21002;-52
2022/07/14 12:06:00;;;;;;;5.73;2.20;;;34.80;52.40;;;;;;5061378;28;20537;-53
2022/07/14 12:08:29;;;;;;;9.73;3.00;;;34.60;53.80;;;;;;5057799;28;20488;-54
2022/07/14 12:11:03;;;;;;;3.57;2.87;;;34.60;53.60;;;;;;5051120;28;20460;-54
2022/07/14 12:13:29;;;;;;;4.33;3.10;;;34.50;53.40;;;;;;5060822;28;20502;-56
2022/07/14 12:16:01;;;;;;;7.43;3.20;;;34.60;54.60;;;;;;5059954;28;20474;-52
2022/07/14 12:18:31;;;;;;;3.63;2.23;;;34.80;54.90;;;;;;5052304;28;20521;-53
2022/07/14 12:20:59;;;;;;;3.33;2.73;;;;;;;;;;5057918;28;21002;-53
2022/07/14 12:23:26;;;;;;;9.30;2.87;;;35.30;56.00;;;;;;5061771;28;20456;-53
2022/07/14 12:25:53;;;;;;;2.97;2.77;;;35.60;57.20;;;;;;5055974;28;21174;-53
2022/07/14 12:28:21;;;;;;;5.40;3.20;;;36.30;54.70;;;;;;5057893;28;20491;-53
2022/07/14 12:30:50;;;;;;;4.77;2.90;;;36.50;53.70;;;;;;5062783;28;20892;-52
2022/07/14 12:33:21;;;;;;;2.63;2.40;;;36.60;52.00;;;;;;5058077;28;20528;-53
2022/07/14 12:35:50;;;;;;;4.00;2.90;;;36.70;52.20;;;;;;5061396;28;20616;-53
2022/07/14 12:38:19;;;;;;;2.67;2.47;;;36.80;50.70;;;;;;5056960;28;20478;-54
2022/07/14 12:40:48;;;;;;;5.10;3.43;;;36.90;51.80;;;;;;5057613;28;20470;-53
2022/07/14 12:43:15;;;;;;;5.83;3.30;;;36.40;51.60;;;;;;5057162;28;20471;-53
2022/07/14 12:46:02;;;;;;;3.97;2.90;;;36.40;52.10;;;;;;5060041;28;20576;-53
2022/07/14 12:48:29;;;;;;;13.40;3.37;;;36.70;52.60;;;;;;5055374;28;20456;-55
2022/07/14 12:50:57;;;;;;;6.10;3.17;;;36.80;51.50;;;;;;5063436;28;20451;-53
2022/07/14 12:53:24;;;;;;;7.20;3.00;;;36.70;52.30;;;;;;5037092;28;20881;-53
2022/07/14 12:55:59;;;;;;;3.17;2.97;;;36.70;52.20;;;;;;5057048;28;20457;-52
2022/07/14 12:58:29;;;;;;;3.50;3.20;;;36.50;51.90;;;;;;5059893;28;20933;-53
2022/07/14 13:00:55;;;;;;;3.17;2.73;;;36.50;51.50;;;;;;5057710;28;20618;-53
2022/07/14 13:03:23;;;;;;;9.10;2.63;;;36.80;53.20;;;;;;5064067;28;20724;-51
2022/07/14 13:05:55;;;;;;;5.60;3.27;;;36.80;52.70;;;;;;5045775;28;20952;-53
2022/07/14 13:08:35;;;;;;;3.60;2.70;;;36.70;50.80;;;;;;5050139;28;20881;-53